Vandergrift, Pennsylvania
Current Conditions -  °F | °C
As of 8:35 AM on Thursday 23 Oct 2014 (Local Time) from KBTP Reporting Station
Broken Clouds Broken Clouds  
Wind Chill: 44°   Ceiling: 2100
Heat Index: 46°   Visibility: 10mi
Dew Point: 39°   Wind: 6mph
Humidity: 76%   Direction: 310°NW
Pressure: 30.14"   Gusts: NA
Location:  40.6°N, 79.57°W
Report Text: KBTP 231235Z AUTO 31005KT 10SM BKN021 08/04 A3014 RMK AO1
Loading
Personal Weather Stations






























Interactive Weather Map New forecast layout! Learn more

10-Day Weather Forecast

Advertisements
Track Severe Weather on mobile